Time;durP1;ratioP1;P1;durP2;ratioP2;P2;SDS_P1;SDS_P2;PMS_P1;PMS_P2;Temp;Humidity;BMP_temperature;BMP_pressure;BME280_temperature;BME280_humidity;BME280_pressure;Samples;Min_cycle;Max_cycle;Signal;HPM_P1;HPM_P2
2021/09/22 00:04:22;;;;;;;20.53;13.57;;;10.90;93.80;;;;;;5098058;23;20060;-75
2021/09/22 00:06:48;;;;;;;18.83;13.20;;;10.80;93.80;;;;;;4895187;29;20033;-76
2021/09/22 00:09:13;;;;;;;21.03;13.70;;;10.80;93.90;;;;;;4894203;29;20032;-75
2021/09/22 00:11:39;;;;;;;18.93;12.63;;;10.80;94.00;;;;;;4877233;29;20450;-76
2021/09/22 00:14:05;;;;;;;17.83;13.33;;;10.70;94.00;;;;;;4875453;29;20077;-77
2021/09/22 00:16:31;;;;;;;20.67;13.63;;;10.70;94.10;;;;;;4859438;29;20398;-77
2021/09/22 00:18:57;;;;;;;17.93;13.60;;;10.70;94.20;;;;;;4859923;29;20041;-77
2021/09/22 00:21:22;;;;;;;19.17;14.27;;;10.60;94.30;;;;;;4859499;29;20045;-76
2021/09/22 00:23:48;;;;;;;21.20;14.60;;;10.60;94.40;;;;;;4876134;29;20089;-77
2021/09/22 00:26:14;;;;;;;17.10;12.67;;;10.50;94.40;;;;;;4843039;29;20044;-77
2021/09/22 00:28:39;;;;;;;16.93;13.50;;;10.50;94.40;;;;;;4875960;29;20078;-77
2021/09/22 00:31:05;;;;;;;19.50;13.70;;;10.50;94.50;;;;;;4875294;29;20071;-77
2021/09/22 00:33:31;;;;;;;21.30;14.60;;;10.50;94.60;;;;;;4859734;29;20037;-77
2021/09/22 00:35:58;;;;;;;18.63;14.70;;;10.50;94.60;;;;;;4876375;29;20037;-77
2021/09/22 00:38:24;;;;;;;20.13;14.77;;;10.50;94.70;;;;;;4843780;29;20443;-76
2021/09/22 00:40:50;;;;;;;24.43;14.50;;;10.50;94.70;;;;;;4875754;29;20090;-77
2021/09/22 00:43:16;;;;;;;22.50;14.20;;;10.40;94.70;;;;;;4858406;29;20072;-76
2021/09/22 00:45:42;;;;;;;19.00;14.33;;;10.40;94.80;;;;;;4877235;29;20470;-76
2021/09/22 00:48:07;;;;;;;22.63;14.53;;;10.30;94.80;;;;;;4879148;29;20037;-76
2021/09/22 00:50:34;;;;;;;19.10;13.37;;;10.30;94.90;;;;;;4879487;29;20048;-77
2021/09/22 00:52:59;;;;;;;17.00;13.53;;;10.30;94.90;;;;;;4879648;29;20037;-76
2021/09/22 00:55:25;;;;;;;16.43;12.73;;;10.20;94.80;;;;;;4846671;29;20097;-76
2021/09/22 00:57:54;;;;;;;17.30;13.87;;;10.20;94.80;;;;;;4846817;29;20033;-77
2021/09/22 01:00:26;;;;;;;18.37;13.23;;;10.20;94.80;;;;;;4878685;29;20048;-75
2021/09/22 01:02:52;;;;;;;19.77;12.73;;;10.10;94.80;;;;;;4880143;29;20112;-76
2021/09/22 01:05:22;;;;;;;16.97;12.63;;;10.10;94.90;;;;;;4892584;29;20056;-77
2021/09/22 01:07:49;;;;;;;16.80;12.10;;;10.10;94.90;;;;;;4881259;29;20450;-76
2021/09/22 01:10:16;;;;;;;17.53;12.67;;;10.10;94.90;;;;;;4897228;29;20036;-75
2021/09/22 01:12:43;;;;;;;18.30;13.00;;;10.10;95.00;;;;;;4897893;29;20032;-76
2021/09/22 01:15:10;;;;;;;18.73;13.13;;;10.10;95.00;;;;;;4880441;29;20203;-77
2021/09/22 01:17:35;;;;;;;19.13;13.27;;;10.10;95.00;;;;;;4897783;29;20028;-77
2021/09/22 01:20:07;;;;;;;15.90;12.13;;;10.10;94.90;;;;;;4897647;29;20591;-76
2021/09/22 01:22:34;;;;;;;15.77;12.20;;;10.00;94.90;;;;;;4898196;29;20033;-77
2021/09/22 01:25:00;;;;;;;15.80;12.53;;;10.00;94.90;;;;;;4881051;29;20040;-77
2021/09/22 01:27:26;;;;;;;15.93;12.73;;;10.00;94.90;;;;;;4862449;29;20041;-77
2021/09/22 01:29:52;;;;;;;16.57;12.33;;;9.90;94.90;;;;;;4862557;29;20025;-78
2021/09/22 01:32:19;;;;;;;15.03;12.03;;;9.90;95.00;;;;;;4862222;29;20069;-76
2021/09/22 01:34:45;;;;;;;14.73;12.03;;;9.90;95.00;;;;;;4862836;29;20040;-77
2021/09/22 01:37:11;;;;;;;18.93;12.40;;;9.90;95.10;;;;;;4862118;29;20025;-78
2021/09/22 01:39:39;;;;;;;17.70;13.27;;;9.80;95.10;;;;;;4879318;29;20033;-78
2021/09/22 01:42:05;;;;;;;17.90;13.23;;;9.80;95.10;;;;;;4885713;29;20539;-77
2021/09/22 01:44:36;;;;;;;17.67;13.67;;;9.80;95.20;;;;;;4884449;29;20063;-77
2021/09/22 01:47:03;;;;;;;18.57;13.17;;;9.70;95.20;;;;;;4897049;29;20156;-77
2021/09/22 01:49:29;;;;;;;19.70;12.97;;;9.70;95.20;;;;;;4879324;29;20083;-77
2021/09/22 01:52:00;;;;;;;17.43;13.43;;;9.60;95.30;;;;;;4879988;29;20103;-77
2021/09/22 01:54:26;;;;;;;17.43;13.13;;;9.60;95.30;;;;;;4881351;29;20098;-77
2021/09/22 01:56:52;;;;;;;21.03;13.90;;;9.60;95.40;;;;;;4861525;29;20505;-76
2021/09/22 01:59:19;;;;;;;18.57;13.07;;;9.60;95.40;;;;;;4845584;29;20021;-76
2021/09/22 02:01:45;;;;;;;17.93;13.67;;;9.50;95.40;;;;;;4864795;29;20190;-78
2021/09/22 02:04:11;;;;;;;18.93;14.83;;;9.50;95.50;;;;;;4894819;29;20525;-76
2021/09/22 02:06:36;;;;;;;22.97;15.20;;;9.50;95.50;;;;;;4896116;29;20037;-76
2021/09/22 02:09:03;;;;;;;22.60;15.00;;;9.50;95.60;;;;;;4896790;29;20449;-77
2021/09/22 02:11:29;;;;;;;24.90;15.67;;;9.50;95.60;;;;;;4879306;29;20044;-78
2021/09/22 02:13:55;;;;;;;22.60;15.63;;;9.40;95.60;;;;;;4896166;29;20035;-76
2021/09/22 02:16:21;;;;;;;22.57;14.90;;;9.40;95.60;;;;;;4878594;29;20037;-76
2021/09/22 02:18:46;;;;;;;20.63;14.93;;;9.40;95.60;;;;;;4879714;29;20558;-77
2021/09/22 02:21:12;;;;;;;22.37;15.90;;;9.40;95.70;;;;;;4896167;29;20431;-77
2021/09/22 02:23:38;;;;;;;22.80;16.47;;;9.30;95.70;;;;;;4879420;29;20044;-76
2021/09/22 02:26:05;;;;;;;21.10;16.30;;;9.30;95.70;;;;;;4864714;29;20044;-77
2021/09/22 02:28:31;;;;;;;24.90;17.10;;;9.30;95.70;;;;;;4895719;29;20067;-77
2021/09/22 02:30:57;;;;;;;25.67;17.83;;;9.30;95.80;;;;;;4879882;29;20039;-76
2021/09/22 02:33:23;;;;;;;26.53;18.50;;;9.30;95.80;;;;;;4895333;29;20036;-77
2021/09/22 02:35:48;;;;;;;27.17;18.30;;;9.30;95.90;;;;;;4896206;29;20120;-77
2021/09/22 02:38:14;;;;;;;25.93;18.23;;;9.30;95.90;;;;;;4895734;29;20041;-77
2021/09/22 02:40:40;;;;;;;26.07;18.30;;;9.30;95.90;;;;;;4896503;29;20028;-76
2021/09/22 02:43:06;;;;;;;23.37;17.33;;;9.30;95.90;;;;;;4894676;29;20393;-77
2021/09/22 02:45:31;;;;;;;28.47;17.60;;;9.20;95.90;;;;;;4896024;29;20031;-77
2021/09/22 02:47:57;;;;;;;23.07;17.07;;;9.20;95.90;;;;;;4896328;29;20032;-77
2021/09/22 02:50:24;;;;;;;24.03;17.67;;;9.20;96.00;;;;;;4877804;29;20043;-77
2021/09/22 02:52:50;;;;;;;28.27;19.07;;;9.20;96.00;;;;;;4895820;29;20370;-76
2021/09/22 02:55:16;;;;;;;26.37;18.07;;;9.20;96.10;;;;;;4878931;29;20036;-77
2021/09/22 02:57:42;;;;;;;24.37;17.47;;;9.20;96.10;;;;;;4878686;29;20043;-77
2021/09/22 03:00:09;;;;;;;24.50;17.27;;;9.20;96.20;;;;;;4895276;29;20047;-77
2021/09/22 03:02:35;;;;;;;28.03;17.20;;;9.20;96.20;;;;;;4878031;29;20147;-77
2021/09/22 03:05:01;;;;;;;26.53;17.27;;;9.10;96.20;;;;;;4877567;29;20056;-77
2021/09/22 03:07:26;;;;;;;25.30;17.67;;;9.10;96.20;;;;;;4862713;29;20041;-78
2021/09/22 03:09:53;;;;;;;25.07;17.10;;;9.10;96.20;;;;;;4877426;29;20033;-77
2021/09/22 03:12:18;;;;;;;25.57;16.87;;;9.10;96.20;;;;;;4878587;29;20032;-77
2021/09/22 03:14:44;;;;;;;23.30;16.97;;;9.10;96.50;;;;;;4894734;29;20062;-76
2021/09/22 03:17:10;;;;;;;22.63;16.73;;;9.10;96.30;;;;;;4878214;29;20408;-77
2021/09/22 03:19:35;;;;;;;21.87;16.00;;;9.10;96.30;;;;;;4877564;29;20045;-77
2021/09/22 03:22:01;;;;;;;24.20;17.17;;;9.10;96.30;;;;;;4895333;29;20093;-75
2021/09/22 03:24:27;;;;;;;24.77;17.27;;;9.10;96.30;;;;;;4877315;29;20040;-77
2021/09/22 03:26:52;;;;;;;26.50;17.10;;;9.10;96.40;;;;;;4878316;29;20037;-77
2021/09/22 03:29:18;;;;;;;25.23;17.57;;;9.10;96.40;;;;;;4878521;29;20442;-76
2021/09/22 03:31:44;;;;;;;25.67;17.20;;;9.10;96.40;;;;;;4877746;29;20933;-77
2021/09/22 03:34:10;;;;;;;25.07;17.97;;;9.10;96.40;;;;;;4893833;29;20397;-76
2021/09/22 03:36:36;;;;;;;22.97;16.07;;;9.10;96.50;;;;;;4894515;29;20044;-77
2021/09/22 03:39:02;;;;;;;21.37;16.53;;;9.00;96.50;;;;;;4895756;29;20096;-78
2021/09/22 03:41:28;;;;;;;21.90;15.77;;;9.10;96.60;;;;;;4894590;29;20473;-77
2021/09/22 03:43:53;;;;;;;22.47;16.90;;;9.10;96.60;;;;;;4859605;29;20037;-77
2021/09/22 03:46:19;;;;;;;22.03;16.17;;;9.10;96.60;;;;;;4860255;29;20029;-77
2021/09/22 03:48:45;;;;;;;21.77;16.43;;;9.10;96.60;;;;;;4875804;29;20029;-77
2021/09/22 03:51:11;;;;;;;23.17;16.90;;;9.00;96.60;;;;;;4890524;29;20430;-77
2021/09/22 03:53:36;;;;;;;24.73;16.87;;;9.00;96.60;;;;;;4893578;29;20040;-77
2021/09/22 03:56:02;;;;;;;24.13;17.40;;;9.00;96.60;;;;;;4895044;29;20028;-77
2021/09/22 03:58:29;;;;;;;24.63;18.20;;;9.00;96.70;;;;;;4893559;29;20039;-78
2021/09/22 04:00:55;;;;;;;24.73;17.93;;;9.00;96.70;;;;;;4894369;29;20032;-77
2021/09/22 04:03:21;;;;;;;25.20;18.63;;;9.00;96.70;;;;;;4861667;29;20402;-77
2021/09/22 04:05:47;;;;;;;25.17;18.90;;;9.00;96.70;;;;;;4856529;29;20056;-78
2021/09/22 04:08:13;;;;;;;26.20;19.03;;;9.00;96.80;;;;;;4858849;29;20060;-77
2021/09/22 04:10:38;;;;;;;25.47;18.07;;;9.00;96.80;;;;;;4858857;29;20037;-77
2021/09/22 04:13:04;;;;;;;26.13;18.07;;;9.00;96.80;;;;;;4863224;29;20048;-77
2021/09/22 04:15:30;;;;;;;24.47;17.63;;;9.00;96.80;;;;;;4859419;29;20445;-78
2021/09/22 04:17:55;;;;;;;27.23;18.87;;;9.00;96.80;;;;;;4859209;29;20479;-77
2021/09/22 04:20:21;;;;;;;28.10;19.00;;;9.00;96.80;;;;;;4859911;29;20033;-76
2021/09/22 04:22:47;;;;;;;28.03;20.27;;;9.00;96.90;;;;;;4861968;29;20045;-77
2021/09/22 04:25:12;;;;;;;25.97;18.67;;;8.90;96.90;;;;;;4894648;29;20162;-77
2021/09/22 04:27:39;;;;;;;28.10;20.50;;;8.90;96.90;;;;;;4897217;29;20401;-76
2021/09/22 04:30:06;;;;;;;27.03;19.07;;;8.90;97.00;;;;;;4898258;29;20537;-77
2021/09/22 04:32:32;;;;;;;27.47;19.87;;;8.90;97.00;;;;;;4880366;29;20081;-78
2021/09/22 04:34:58;;;;;;;28.83;20.17;;;9.00;97.00;;;;;;4879753;29;20104;-78
2021/09/22 04:37:24;;;;;;;24.90;18.80;;;8.90;97.20;;;;;;4898230;29;20040;-77
2021/09/22 04:39:51;;;;;;;28.93;19.97;;;9.00;97.10;;;;;;4897176;29;20103;-77
2021/09/22 04:42:17;;;;;;;31.33;20.53;;;8.90;97.10;;;;;;4898316;29;20047;-78
2021/09/22 04:44:42;;;;;;;25.27;18.73;;;8.90;97.10;;;;;;4855897;29;20033;-78
2021/09/22 04:47:09;;;;;;;29.03;18.33;;;8.90;97.10;;;;;;4880774;29;20029;-78
2021/09/22 04:49:36;;;;;;;27.87;19.03;;;8.90;97.20;;;;;;4880618;29;20115;-77
2021/09/22 04:52:02;;;;;;;27.37;18.37;;;8.90;97.20;;;;;;4865443;29;20052;-77
2021/09/22 04:54:28;;;;;;;26.37;18.03;;;8.80;97.20;;;;;;4880285;29;20135;-78
2021/09/22 04:56:53;;;;;;;27.70;18.60;;;8.80;97.20;;;;;;4880315;29;20139;-78
2021/09/22 04:59:19;;;;;;;23.17;18.37;;;8.80;97.20;;;;;;4880814;29;20047;-78
2021/09/22 05:01:47;;;;;;;23.83;18.33;;;8.80;97.30;;;;;;4879776;29;20108;-77
2021/09/22 05:04:13;;;;;;;27.50;19.03;;;8.80;97.30;;;;;;4879578;29;20053;-77
2021/09/22 05:06:38;;;;;;;25.80;18.00;;;8.80;97.30;;;;;;4880184;29;20111;-78
2021/09/22 05:09:04;;;;;;;27.07;18.67;;;8.90;97.40;;;;;;4881081;29;20075;-78
2021/09/22 05:11:30;;;;;;;29.77;18.83;;;8.90;97.40;;;;;;4880687;29;20048;-78
2021/09/22 05:13:56;;;;;;;28.67;19.03;;;8.90;97.40;;;;;;4879951;29;20032;-77
2021/09/22 05:16:21;;;;;;;28.87;19.43;;;8.80;97.40;;;;;;4897619;29;20032;-77
2021/09/22 05:18:47;;;;;;;30.73;18.77;;;8.80;97.40;;;;;;4896392;29;20044;-76
2021/09/22 05:21:13;;;;;;;28.80;19.20;;;8.80;97.40;;;;;;4897264;29;20473;-76
2021/09/22 05:23:38;;;;;;;28.63;20.20;;;8.80;97.40;;;;;;4879691;29;20164;-77
2021/09/22 05:26:04;;;;;;;27.00;18.83;;;8.80;97.50;;;;;;4878518;29;20068;-77
2021/09/22 05:28:30;;;;;;;27.87;19.07;;;8.80;97.50;;;;;;4861685;29;20036;-76
2021/09/22 05:30:55;;;;;;;27.17;19.60;;;8.80;97.50;;;;;;4861001;29;20060;-76
2021/09/22 05:33:21;;;;;;;28.37;18.83;;;8.80;97.50;;;;;;4892157;29;20055;-77
2021/09/22 05:35:47;;;;;;;28.67;19.87;;;8.80;97.50;;;;;;4895880;29;20070;-78
2021/09/22 05:38:14;;;;;;;31.90;20.20;;;8.90;97.60;;;;;;4864811;29;20045;-78
2021/09/22 05:40:40;;;;;;;30.30;20.10;;;8.90;97.60;;;;;;4879098;29;20120;-78
2021/09/22 05:43:06;;;;;;;27.40;19.50;;;9.00;97.60;;;;;;4879126;29;20123;-78
2021/09/22 05:45:31;;;;;;;29.43;20.17;;;9.00;97.70;;;;;;4879892;29;20091;-77
2021/09/22 05:47:57;;;;;;;27.03;20.67;;;9.10;97.70;;;;;;4896398;29;20213;-78
2021/09/22 05:50:23;;;;;;;29.70;20.57;;;9.20;97.70;;;;;;4879653;29;20037;-79
2021/09/22 05:52:49;;;;;;;27.47;20.40;;;9.30;97.70;;;;;;4866511;29;20116;-77
2021/09/22 05:55:14;;;;;;;28.67;19.97;;;9.40;97.70;;;;;;4850827;29;20493;-78
2021/09/22 05:57:41;;;;;;;29.10;20.50;;;9.50;97.60;;;;;;4877626;29;20072;-78
2021/09/22 06:00:07;;;;;;;25.77;19.63;;;9.70;97.60;;;;;;4872474;29;20029;-78
2021/09/22 06:02:33;;;;;;;26.47;20.03;;;9.80;97.50;;;;;;4895812;29;20103;-77
2021/09/22 06:04:58;;;;;;;26.73;19.33;;;10.00;97.50;;;;;;4895480;29;20568;-77
2021/09/22 06:07:24;;;;;;;24.70;19.27;;;10.20;97.30;;;;;;4878986;29;20499;-78
2021/09/22 06:09:51;;;;;;;28.37;18.40;;;10.40;97.10;;;;;;4877509;29;20100;-77
2021/09/22 06:12:17;;;;;;;23.77;17.33;;;10.60;96.90;;;;;;4864377;29;20371;-77
2021/09/22 06:14:43;;;;;;;21.90;17.23;;;10.80;96.60;;;;;;4894511;29;20512;-78
2021/09/22 06:17:08;;;;;;;21.23;15.03;;;11.00;96.20;;;;;;4896038;29;20128;-77
2021/09/22 06:19:34;;;;;;;19.53;15.67;;;11.00;95.90;;;;;;4896635;29;20044;-76
2021/09/22 06:22:00;;;;;;;18.87;14.57;;;11.20;95.50;;;;;;4895922;29;20311;-77
2021/09/22 06:24:25;;;;;;;16.70;13.67;;;11.30;95.20;;;;;;4864382;29;20071;-77
2021/09/22 06:26:52;;;;;;;17.73;12.70;;;11.40;95.00;;;;;;4873745;29;20025;-76
2021/09/22 06:29:18;;;;;;;16.93;12.57;;;11.60;94.70;;;;;;4852015;29;20048;-77
2021/09/22 06:31:44;;;;;;;13.87;11.77;;;11.90;94.50;;;;;;4892983;29;20036;-78
2021/09/22 06:34:10;;;;;;;18.20;11.30;;;12.30;94.00;;;;;;4896163;29;20494;-77
2021/09/22 06:36:36;;;;;;;13.45;10.82;;;12.80;93.30;;;;;;4896393;29;20114;-77
2021/09/22 06:39:03;;;;;;;13.52;9.95;;;13.40;92.00;;;;;;4894107;29;20553;-77
2021/09/22 06:41:30;;;;;;;12.90;10.50;;;13.80;90.70;;;;;;4850513;29;20069;-77
2021/09/22 06:43:56;;;;;;;13.25;10.57;;;13.90;89.50;;;;;;4855760;29;20071;-77
2021/09/22 06:46:22;;;;;;;14.02;9.77;;;13.90;88.00;;;;;;4879282;29;20033;-77
2021/09/22 06:48:48;;;;;;;15.27;9.82;;;13.90;87.70;;;;;;4895104;29;20043;-79
2021/09/22 06:51:17;;;;;;;13.88;9.70;;;14.20;87.40;;;;;;4857738;29;20148;-78
2021/09/22 06:53:43;;;;;;;14.70;9.40;;;14.70;86.20;;;;;;4895360;29;20052;-78
2021/09/22 06:56:09;;;;;;;14.25;9.68;;;15.00;84.40;;;;;;4877549;29;20036;-77
2021/09/22 06:58:34;;;;;;;11.63;8.85;;;15.40;82.60;;;;;;4862506;29;20123;-77
2021/09/22 07:01:00;;;;;;;14.00;9.15;;;15.80;81.40;;;;;;4859076;29;20366;-76
2021/09/22 07:03:26;;;;;;;12.35;8.93;;;16.20;80.20;;;;;;4859694;29;20478;-78
2021/09/22 07:05:52;;;;;;;11.82;8.55;;;16.60;78.10;;;;;;4874342;29;20490;-77
2021/09/22 07:08:17;;;;;;;13.60;8.48;;;16.80;76.90;;;;;;4867859;29;20482;-78
2021/09/22 07:10:43;;;;;;;9.82;8.57;;;17.00;76.00;;;;;;4875110;29;20100;-79
2021/09/22 07:13:09;;;;;;;15.05;9.48;;;17.10;75.70;;;;;;4846108;29;20040;-77
2021/09/22 07:15:35;;;;;;;13.77;9.20;;;17.10;75.00;;;;;;4859110;29;20335;-78
2021/09/22 07:18:01;;;;;;;12.02;8.73;;;17.20;74.70;;;;;;4875719;29;20080;-78
2021/09/22 07:20:27;;;;;;;13.05;9.00;;;17.30;74.40;;;;;;4853934;29;20049;-78
2021/09/22 07:22:53;;;;;;;13.43;9.75;;;17.60;74.10;;;;;;4895749;29;20182;-77
2021/09/22 07:25:19;;;;;;;10.27;9.27;;;17.80;73.10;;;;;;4878746;29;20040;-78
2021/09/22 07:27:44;;;;;;;13.02;9.80;;;18.00;72.30;;;;;;4894872;29;20032;-78
2021/09/22 07:30:13;;;;;;;11.65;9.18;;;18.00;71.00;;;;;;4877293;29;20517;-78
2021/09/22 07:32:43;;;;;;;15.70;10.95;;;18.00;71.40;;;;;;4873515;29;20089;-78
2021/09/22 07:35:10;;;;;;;15.75;10.13;;;18.00;71.30;;;;;;4861783;29;20042;-78
2021/09/22 07:37:35;;;;;;;15.23;9.82;;;18.10;71.10;;;;;;4895821;29;20028;-78
2021/09/22 07:40:02;;;;;;;19.13;11.35;;;18.30;71.10;;;;;;4893783;29;20108;-77
2021/09/22 07:42:28;;;;;;;14.45;10.25;;;18.70;70.30;;;;;;4899081;29;20051;-77
2021/09/22 07:44:54;;;;;;;12.27;9.98;;;18.80;69.40;;;;;;4874182;29;20033;-77
2021/09/22 07:47:21;;;;;;;13.73;9.88;;;18.90;68.80;;;;;;4894029;29;20564;-76
2021/09/22 07:49:47;;;;;;;14.70;10.25;;;19.00;68.70;;;;;;4867750;29;20041;-76
2021/09/22 07:52:14;;;;;;;15.35;10.52;;;19.00;68.30;;;;;;4893391;29;20036;-76
2021/09/22 07:54:41;;;;;;;13.48;11.55;;;18.90;67.40;;;;;;4894158;29;20123;-77
2021/09/22 07:57:07;;;;;;;16.80;10.43;;;19.00;67.60;;;;;;4888780;29;20057;-77
2021/09/22 07:59:33;;;;;;;13.30;10.90;;;19.00;67.20;;;;;;4884837;29;20037;-76
2021/09/22 08:01:59;;;;;;;13.25;11.13;;;19.20;67.60;;;;;;4876318;29;20508;-76
2021/09/22 08:04:25;;;;;;;12.85;10.90;;;19.40;66.80;;;;;;4894401;29;20175;-75
2021/09/22 08:06:51;;;;;;;15.02;12.38;;;19.40;66.50;;;;;;4893993;29;20044;-76
2021/09/22 08:09:17;;;;;;;13.40;12.00;;;19.10;65.60;;;;;;4876480;29;20028;-76
2021/09/22 08:11:44;;;;;;;17.35;12.07;;;18.80;66.30;;;;;;4876443;29;20036;-75
2021/09/22 08:14:09;;;;;;;14.85;12.57;;;18.50;67.10;;;;;;4876579;29;20092;-75
2021/09/22 08:16:35;;;;;;;18.85;11.82;;;18.60;67.00;;;;;;4894023;29;20414;-76
2021/09/22 08:19:01;;;;;;;15.90;13.07;;;18.70;66.80;;;;;;4893735;29;20031;-76
2021/09/22 08:21:27;;;;;;;16.48;13.60;;;18.70;66.20;;;;;;4894710;29;20036;-75
2021/09/22 08:23:52;;;;;;;16.63;12.88;;;18.80;66.20;;;;;;4894516;29;20076;-75
2021/09/22 08:26:18;;;;;;;16.65;12.63;;;18.80;66.70;;;;;;4876909;29;20029;-75
2021/09/22 08:28:43;;;;;;;16.88;12.95;;;19.20;66.20;;;;;;4893564;29;20047;-75
2021/09/22 08:31:09;;;;;;;15.80;12.00;;;19.50;65.00;;;;;;4876961;29;20567;-75
2021/09/22 08:33:35;;;;;;;16.52;11.70;;;19.90;64.90;;;;;;4854270;29;20041;-75
2021/09/22 08:36:01;;;;;;;14.20;11.15;;;20.30;64.50;;;;;;4883308;29;20381;-77
2021/09/22 08:38:28;;;;;;;13.00;11.27;;;20.70;63.50;;;;;;4894263;29;20021;-76
2021/09/22 08:40:54;;;;;;;12.88;11.50;;;21.00;62.70;;;;;;4893604;29;20056;-76
2021/09/22 08:43:24;;;;;;;17.58;14.35;;;21.20;62.30;;;;;;4866322;29;20039;-76
2021/09/22 08:45:49;;;;;;;17.05;12.00;;;21.20;61.40;;;;;;4876913;29;20095;-77
2021/09/22 08:48:15;;;;;;;15.40;11.52;;;21.00;61.20;;;;;;4893952;29;20107;-75
2021/09/22 08:50:41;;;;;;;17.10;11.68;;;21.20;61.70;;;;;;4877853;29;20044;-75
2021/09/22 08:53:07;;;;;;;13.35;11.52;;;21.50;61.50;;;;;;4876734;29;20041;-76
2021/09/22 08:55:33;;;;;;;15.15;12.63;;;21.70;60.60;;;;;;4876969;29;20033;-76
2021/09/22 08:58:00;;;;;;;13.35;11.05;;;21.80;60.60;;;;;;4877621;29;20029;-76
2021/09/22 09:00:26;;;;;;;17.35;12.90;;;21.80;60.80;;;;;;4876821;29;20028;-76
2021/09/22 09:02:52;;;;;;;15.07;12.25;;;21.70;60.20;;;;;;4877180;29;20184;-76
2021/09/22 09:05:19;;;;;;;18.42;13.70;;;21.70;59.30;;;;;;4893238;29;20122;-75
2021/09/22 09:07:55;;;;;;;19.25;12.93;;;21.70;59.00;;;;;;4877903;29;20050;-75
2021/09/22 09:10:27;;;;;;;16.48;13.80;;;21.60;59.10;;;;;;4896813;29;20029;-74
2021/09/22 09:13:12;;;;;;;16.05;12.23;;;21.70;60.30;;;;;;4880693;29;20485;-76
2021/09/22 09:15:45;;;;;;;17.52;12.63;;;22.20;59.60;;;;;;4865145;29;20338;-76
2021/09/22 09:18:23;;;;;;;16.95;14.05;;;22.60;57.90;;;;;;4896880;29;20017;-76
2021/09/22 09:20:50;;;;;;;18.92;12.88;;;22.90;56.10;;;;;;4865368;29;20036;-76
2021/09/22 09:23:20;;;;;;;19.15;14.00;;;22.80;56.70;;;;;;4868132;29;20133;-76
2021/09/22 09:26:04;;;;;;;20.00;14.23;;;23.00;55.50;;;;;;4884286;29;20077;-77
2021/09/22 09:28:35;;;;;;;15.73;13.52;;;23.50;55.20;;;;;;4892343;29;20497;-76
2021/09/22 09:31:05;;;;;;;15.60;11.80;;;24.00;54.20;;;;;;4878006;29;20539;-77
2021/09/22 09:33:42;;;;;;;17.30;13.20;;;24.50;53.30;;;;;;4878619;29;20124;-76
2021/09/22 09:36:20;;;;;;;20.77;14.25;;;24.40;50.90;;;;;;4877384;29;20051;-77
2021/09/22 09:38:55;;;;;;;16.40;12.77;;;24.10;51.20;;;;;;4878117;29;20089;-76
2021/09/22 09:41:28;;;;;;;13.82;12.23;;;23.70;51.90;;;;;;4860103;29;20447;-76
2021/09/22 09:43:54;;;;;;;15.30;12.50;;;23.90;53.10;;;;;;4878427;29;20036;-76
2021/09/22 09:46:24;;;;;;;18.17;13.27;;;24.50;51.90;;;;;;4861931;29;20033;-76
2021/09/22 09:49:07;;;;;;;15.02;12.18;;;24.60;50.30;;;;;;4887064;29;20030;-77
2021/09/22 09:51:34;;;;;;;;;;;24.60;51.60;;;;;;4878090;29;20036;-76
2021/09/22 09:54:17;;;;;;;14.95;11.95;;;24.90;50.90;;;;;;4861331;29;20301;-76
2021/09/22 09:56:43;;;;;;;15.18;12.13;;;24.90;50.20;;;;;;4877997;29;20029;-76
2021/09/22 09:59:09;;;;;;;12.93;11.00;;;25.20;48.80;;;;;;4878102;29;20067;-76
2021/09/22 10:01:41;;;;;;;15.90;12.63;;;25.30;49.70;;;;;;4860782;29;20045;-76
2021/09/22 10:04:07;;;;;;;12.73;10.40;;;25.50;48.00;;;;;;4878216;29;20037;-76
2021/09/22 10:06:33;;;;;;;14.05;11.35;;;25.40;49.10;;;;;;4861036;29;20033;-75
2021/09/22 10:09:00;;;;;;;15.27;12.40;;;25.70;48.50;;;;;;4861375;29;20367;-76
2021/09/22 10:11:27;;;;;;;13.98;12.23;;;25.40;47.40;;;;;;4886585;29;20055;-77
2021/09/22 10:13:53;;;;;;;12.52;11.20;;;25.00;47.60;;;;;;4893109;29;20040;-76
2021/09/22 10:16:20;;;;;;;18.65;13.73;;;24.80;48.30;;;;;;4879589;29;20032;-75
2021/09/22 10:18:48;;;;;;;12.45;10.50;;;24.90;48.00;;;;;;4896133;29;20036;-76
2021/09/22 10:21:18;;;;;;;12.20;10.90;;;24.70;48.90;;;;;;4896422;29;20123;-77
2021/09/22 10:23:44;;;;;;;19.88;14.07;;;25.20;48.60;;;;;;4880633;29;20068;-77
2021/09/22 10:26:10;;;;;;;16.13;12.52;;;25.60;47.00;;;;;;4881133;29;20389;-76
2021/09/22 10:28:41;;;;;;;14.00;10.60;;;25.30;47.10;;;;;;4880029;29;20041;-77
2021/09/22 10:31:28;;;;;;;13.88;11.40;;;25.40;47.90;;;;;;4896423;29;20036;-76
2021/09/22 10:33:54;;;;;;;15.63;10.27;;;25.60;46.70;;;;;;4879199;29;20036;-77
2021/09/22 10:36:33;;;;;;;16.40;12.05;;;25.70;47.20;;;;;;4895012;29;20024;-77
2021/09/22 10:38:59;;;;;;;13.30;10.52;;;25.60;46.40;;;;;;4874460;29;20561;-76
2021/09/22 10:41:28;;;;;;;12.27;10.32;;;25.50;46.80;;;;;;4861863;29;20131;-77
2021/09/22 10:43:54;;;;;;;13.75;11.73;;;25.70;45.60;;;;;;4881905;29;20052;-77
2021/09/22 10:46:21;;;;;;;14.93;10.75;;;25.60;45.20;;;;;;4876705;29;20032;-77
2021/09/22 10:48:56;;;;;;;10.88;9.73;;;25.30;46.60;;;;;;4894026;29;20024;-75
2021/09/22 10:51:44;;;;;;;11.65;9.43;;;25.10;46.70;;;;;;4892134;29;20044;-76
2021/09/22 10:54:22;;;;;;;17.25;9.68;;;25.20;45.40;;;;;;4895464;29;20093;-76
2021/09/22 10:56:54;;;;;;;12.23;9.68;;;25.20;45.70;;;;;;4895669;29;20025;-75
2021/09/22 10:59:24;;;;;;;10.68;9.38;;;25.50;46.10;;;;;;4894401;29;20131;-77
2021/09/22 11:01:50;;;;;;;15.05;12.40;;;25.60;45.40;;;;;;4878879;29;20084;-76
2021/09/22 11:04:16;;;;;;;13.15;10.98;;;25.60;44.70;;;;;;4859282;29;20072;-78
2021/09/22 11:09:32;;;;;;;15.07;11.00;;;24.70;44.70;;;;;;4894469;29;20036;-76
2021/09/22 11:12:01;;;;;;;13.48;11.25;;;24.40;47.00;;;;;;4895097;29;20049;-76
2021/09/22 11:14:56;;;;;;;16.85;12.07;;;24.60;46.80;;;;;;4895262;29;20135;-76
2021/09/22 11:17:25;;;;;;;13.55;10.95;;;24.70;45.50;;;;;;4893300;29;20036;-75
2021/09/22 11:19:53;;;;;;;15.55;11.52;;;24.70;46.00;;;;;;4895384;29;20040;-76
2021/09/22 11:22:28;;;;;;;14.75;11.15;;;24.80;45.80;;;;;;4894189;29;20485;-78
2021/09/22 11:24:59;;;;;;;14.02;10.13;;;25.00;45.40;;;;;;4895191;29;20041;-75
2021/09/22 11:27:25;;;;;;;13.15;10.88;;;25.10;44.70;;;;;;4894447;29;20037;-76
2021/09/22 11:30:01;;;;;;;13.95;10.85;;;25.20;44.30;;;;;;4894348;29;20036;-75
2021/09/22 11:32:36;;;;;;;14.82;12.32;;;25.20;44.50;;;;;;4894557;29;20064;-76
2021/09/22 11:35:08;;;;;;;12.07;9.98;;;25.30;44.50;;;;;;4878190;29;20040;-77
2021/09/22 11:37:56;;;;;;;13.48;9.65;;;25.00;44.70;;;;;;4894702;29;20032;-75
2021/09/22 11:40:26;;;;;;;14.40;11.35;;;25.10;44.40;;;;;;4894379;29;20342;-76
2021/09/22 11:42:55;;;;;;;14.38;12.80;;;25.20;44.20;;;;;;4894439;29;20041;-75
2021/09/22 11:45:23;;;;;;;17.60;12.10;;;25.20;44.20;;;;;;4877482;29;20059;-75
2021/09/22 11:47:48;;;;;;;15.65;13.23;;;25.20;44.70;;;;;;4894538;29;20072;-77
2021/09/22 11:50:29;;;;;;;19.60;14.68;;;25.30;44.50;;;;;;4877750;29;20458;-75
2021/09/22 11:52:55;;;;;;;16.23;12.52;;;25.30;43.60;;;;;;4895191;29;20512;-76
2021/09/22 11:55:22;;;;;;;18.20;12.63;;;25.10;44.50;;;;;;4877489;29;20037;-75
2021/09/22 11:57:48;;;;;;;14.05;11.27;;;25.10;44.00;;;;;;4893870;29;20039;-76
2021/09/22 12:00:19;;;;;;;17.17;11.75;;;25.10;44.30;;;;;;4877530;29;20394;-76
2021/09/22 12:02:45;;;;;;;17.30;13.20;;;25.20;44.20;;;;;;4866809;29;20033;-76
2021/09/22 12:05:16;;;;;;;18.48;12.45;;;25.30;44.30;;;;;;4875593;29;20064;-76
2021/09/22 12:07:43;;;;;;;13.93;10.95;;;25.20;44.40;;;;;;4875123;29;20040;-75
2021/09/22 12:10:09;;;;;;;14.63;11.15;;;25.20;44.40;;;;;;4859124;29;20025;-74
2021/09/22 12:12:37;;;;;;;17.05;12.63;;;25.20;44.50;;;;;;4888837;29;20045;-75
2021/09/22 12:15:04;;;;;;;15.70;12.85;;;25.20;44.00;;;;;;4874560;29;20541;-76
2021/09/22 12:17:35;;;;;;;16.08;12.18;;;25.10;44.30;;;;;;4875291;29;20027;-78
2021/09/22 12:20:07;;;;;;;15.52;12.65;;;25.10;44.60;;;;;;4875866;29;20048;-77
2021/09/22 12:22:35;;;;;;;14.55;10.60;;;25.00;44.30;;;;;;4875057;29;20580;-78
2021/09/22 12:25:02;;;;;;;15.23;12.15;;;24.90;45.00;;;;;;4875911;29;20064;-76
2021/09/22 12:27:29;;;;;;;16.02;13.18;;;24.80;44.80;;;;;;4875752;29;20029;-78
2021/09/22 12:30:05;;;;;;;14.27;12.00;;;24.70;45.30;;;;;;4875515;29;20085;-77
2021/09/22 12:32:48;;;;;;;14.50;11.13;;;24.30;45.10;;;;;;4887717;29;20039;-80
2021/09/22 12:35:14;;;;;;;14.40;11.15;;;24.20;46.70;;;;;;4892143;29;20054;-78
2021/09/22 12:37:40;;;;;;;14.07;10.02;;;24.10;46.50;;;;;;4876955;29;20075;-76